Time;durP1;ratioP1;P1;durP2;ratioP2;P2;SDS_P1;SDS_P2;PMS_P1;PMS_P2;Temp;Humidity;BMP_temperature;BMP_pressure;BME280_temperature;BME280_humidity;BME280_pressure;Samples;Min_cycle;Max_cycle;Signal;HPM_P1;HPM_P2
2023/07/05 00:00:45;;;;;;;10.02;6.05;;;;;;;-145.41;100.00;58600.66;5034005;28;20056;-75
2023/07/05 00:03:10;;;;;;;11.95;7.43;;;;;;;-145.41;100.00;58600.66;5035129;28;20067;-75
2023/07/05 00:05:37;;;;;;;10.90;6.55;;;;;;;-145.41;100.00;58600.66;5040595;28;20057;-76
2023/07/05 00:08:03;;;;;;;10.15;6.63;;;;;;;-145.41;100.00;58600.66;5037381;28;20489;-75
2023/07/05 00:10:29;;;;;;;9.93;6.18;;;;;;;-145.41;100.00;58600.66;5036484;28;20041;-75
2023/07/05 00:12:54;;;;;;;11.60;7.20;;;;;;;-145.41;100.00;58600.66;5041774;28;20032;-76
2023/07/05 00:15:19;;;;;;;12.25;7.95;;;;;;;-145.41;100.00;58600.66;5039024;28;20508;-76
2023/07/05 00:17:45;;;;;;;11.35;7.13;;;;;;;-145.41;100.00;58600.66;5037416;28;20415;-76
2023/07/05 00:20:11;;;;;;;11.18;7.07;;;;;;;-145.41;100.00;58600.66;5044690;28;20403;-76
2023/07/05 00:22:36;;;;;;;12.10;7.47;;;;;;;-145.41;100.00;58600.66;5031765;28;20423;-76
2023/07/05 00:25:02;;;;;;;10.88;6.70;;;;;;;-145.41;100.00;58600.66;5036746;28;20033;-75
2023/07/05 00:27:28;;;;;;;12.15;6.90;;;;;;;-145.41;100.00;58600.66;5045687;28;20048;-75
2023/07/05 00:29:55;;;;;;;10.38;7.30;;;;;;;-145.41;100.00;58600.66;5040507;28;20029;-76
2023/07/05 00:32:20;;;;;;;10.13;6.78;;;;;;;-145.41;100.00;58600.66;5040792;28;20395;-75
2023/07/05 00:34:46;;;;;;;10.50;6.70;;;;;;;-145.41;100.00;58600.66;5049546;28;20028;-75
2023/07/05 00:37:11;;;;;;;9.65;6.57;;;;;;;-145.41;100.00;58600.66;5039082;28;20049;-75
2023/07/05 00:39:37;;;;;;;9.48;6.82;;;;;;;-145.41;100.00;58600.66;5041931;28;20112;-75
2023/07/05 00:42:03;;;;;;;10.15;6.93;;;;;;;-145.41;100.00;58600.66;5048952;28;20071;-75
2023/07/05 00:44:29;;;;;;;11.07;6.95;;;;;;;-145.41;100.00;58600.66;5038558;28;20120;-75
2023/07/05 00:47:16;;;;;;;13.10;7.53;;;;;;;-145.41;100.00;58600.66;5043203;28;20107;-76
2023/07/05 00:49:42;;;;;;;12.60;6.80;;;;;;;-145.41;100.00;58600.66;5029353;28;20021;-75
2023/07/05 00:52:16;;;;;;;12.50;7.45;;;;;;;-145.41;100.00;58600.66;5038151;28;20440;-76
2023/07/05 00:54:47;;;;;;;11.88;7.22;;;;;;;-145.41;100.00;58600.66;5048344;28;20083;-76
2023/07/05 00:57:23;;;;;;;12.15;7.97;;;;;;;-145.41;100.00;58600.66;5043529;28;20029;-75
2023/07/05 01:00:04;;;;;;;16.45;7.47;;;;;;;-145.41;100.00;58600.66;5036899;28;20035;-75
2023/07/05 01:02:31;;;;;;;10.68;7.25;;;;;;;-145.41;100.00;58600.66;5033030;28;20045;-75
2023/07/05 01:05:00;;;;;;;13.35;7.72;;;;;;;-145.41;100.00;58600.66;5041814;28;20403;-75
2023/07/05 01:07:25;;;;;;;13.73;8.52;;;;;;;-145.41;100.00;58600.66;5039472;28;20037;-76
2023/07/05 01:09:51;;;;;;;12.07;7.40;;;;;;;-145.41;100.00;58600.66;5047950;28;20116;-75
2023/07/05 01:12:24;;;;;;;11.70;7.60;;;;;;;-145.41;100.00;58600.66;5039376;28;20045;-75
2023/07/05 01:15:08;;;;;;;13.55;7.10;;;;;;;-145.41;100.00;58600.66;5039593;28;20127;-75
2023/07/05 01:17:41;;;;;;;10.50;7.43;;;;;;;-145.41;100.00;58600.66;5030654;28;20057;-75
2023/07/05 01:20:21;;;;;;;11.50;7.88;;;;;;;-145.41;100.00;58600.66;5031485;28;20373;-75
2023/07/05 01:22:52;;;;;;;10.63;7.68;;;;;;;-145.41;100.00;58600.66;5032854;28;20037;-75
2023/07/05 01:25:56;;;;;;;11.73;7.85;;;;;;;-145.41;100.00;58600.66;5031258;28;20116;-75
2023/07/05 01:28:50;;;;;;;13.07;7.40;;;;;;;-145.41;100.00;58600.66;5010554;28;20033;-75
2023/07/05 01:31:55;;;;;;;10.48;7.05;;;;;;;-145.41;100.00;58600.66;5039963;28;20491;-75
2023/07/05 01:34:27;;;;;;;11.40;7.22;;;;;;;-145.41;100.00;58600.66;5032916;28;20079;-75
2023/07/05 01:36:53;;;;;;;13.33;7.50;;;;;;;-145.41;100.00;58600.66;5040868;28;20529;-75
2023/07/05 01:39:18;;;;;;;13.32;7.30;;;;;;;-145.41;100.00;58600.66;5040449;28;20037;-75
2023/07/05 01:41:43;;;;;;;12.48;7.30;;;;;;;-145.41;100.00;58600.66;5037991;28;20037;-75
2023/07/05 01:44:11;;;;;;;15.85;8.15;;;;;;;-145.41;100.00;58600.66;5045277;28;20541;-76
2023/07/05 01:46:45;;;;;;;9.93;7.50;;;;;;;-145.41;100.00;58600.66;5023095;28;20620;-75
2023/07/05 01:49:35;;;;;;;12.13;7.78;;;;;;;-145.41;100.00;58600.66;5035643;28;20492;-75
2023/07/05 01:52:12;;;;;;;11.13;7.80;;;;;;;-145.41;100.00;58600.66;5013900;28;20067;-74
2023/07/05 01:54:52;;;;;;;14.60;8.50;;;;;;;-145.41;100.00;58600.66;5039636;28;20121;-75
2023/07/05 01:57:24;;;;;;;12.15;7.72;;;;;;;-145.41;100.00;58600.66;5039979;28;20407;-75
2023/07/05 01:59:55;;;;;;;10.25;7.05;;;;;;;-145.41;100.00;58600.66;5030626;28;20029;-75
2023/07/05 02:02:27;;;;;;;12.82;7.75;;;;;;;-145.41;100.00;58600.66;5037410;28;20029;-76
2023/07/05 02:04:53;;;;;;;11.75;7.38;;;;;;;-145.41;100.00;58600.66;5042172;28;20432;-76
2023/07/05 02:07:25;;;;;;;11.30;6.80;;;;;;;-145.41;100.00;58600.66;5041683;28;20079;-75
2023/07/05 02:09:50;;;;;;;10.45;6.95;;;;;;;-145.41;100.00;58600.66;5032621;28;20037;-76
2023/07/05 02:12:15;;;;;;;11.23;7.57;;;;;;;-145.41;100.00;58600.66;5039221;28;20052;-75
2023/07/05 02:14:40;;;;;;;11.75;7.53;;;;;;;-145.41;100.00;58600.66;5046578;28;20139;-75
2023/07/05 02:17:06;;;;;;;11.07;7.15;;;;;;;-145.41;100.00;58600.66;5035552;28;20119;-75
2023/07/05 02:19:31;;;;;;;13.27;7.65;;;;;;;-145.41;100.00;58600.66;5042161;28;20036;-74
2023/07/05 02:22:00;;;;;;;12.27;7.60;;;;;;;-145.41;100.00;58600.66;5028509;28;20033;-75
2023/07/05 02:24:25;;;;;;;11.38;7.03;;;;;;;-145.41;100.00;58600.66;5038203;28;20037;-74
2023/07/05 02:26:54;;;;;;;11.38;6.95;;;;;;;-145.41;100.00;58600.66;5041139;28;20091;-75
2023/07/05 02:29:20;;;;;;;11.60;7.20;;;;;;;-145.41;100.00;58600.66;5040359;28;20496;-75
2023/07/05 02:31:45;;;;;;;13.70;7.68;;;;;;;-145.41;100.00;58600.66;5034639;28;20040;-75
2023/07/05 02:34:11;;;;;;;12.88;7.45;;;;;;;-145.41;100.00;58600.66;5038111;28;20029;-75
2023/07/05 02:36:36;;;;;;;11.40;7.53;;;;;;;-145.41;100.00;58600.66;5033052;28;20266;-74
2023/07/05 02:39:02;;;;;;;11.45;7.13;;;;;;;-145.41;100.00;58600.66;5031796;28;20046;-75
2023/07/05 02:41:27;;;;;;;14.30;7.88;;;;;;;-145.41;100.00;58600.66;5038148;28;20041;-75
2023/07/05 02:43:52;;;;;;;11.25;8.48;;;;;;;-145.41;100.00;58600.66;5037054;28;20044;-75
2023/07/05 02:46:18;;;;;;;15.02;8.60;;;;;;;-145.41;100.00;58600.66;5040654;28;20117;-75
2023/07/05 02:48:45;;;;;;;12.65;7.53;;;;;;;-145.41;100.00;58600.66;5041654;28;20388;-75
2023/07/05 02:51:10;;;;;;;12.35;8.35;;;;;;;-145.41;100.00;58600.66;5040747;28;20418;-75
2023/07/05 02:53:36;;;;;;;11.60;7.47;;;;;;;-145.41;100.00;58600.66;5037531;28;20025;-76
2023/07/05 02:56:01;;;;;;;10.73;7.55;;;;;;;-145.41;100.00;58600.66;5042375;28;20388;-75
2023/07/05 02:58:27;;;;;;;11.88;7.15;;;;;;;-145.41;100.00;58600.66;5034786;28;20034;-75
2023/07/05 03:00:52;;;;;;;11.88;7.70;;;;;;;-145.41;100.00;58600.66;5036438;28;20079;-76
2023/07/05 03:03:17;;;;;;;11.75;7.88;;;;;;;-145.41;100.00;58600.66;5045102;28;20025;-75
2023/07/05 03:05:43;;;;;;;11.98;8.30;;;;;;;-145.41;100.00;58600.66;5036567;28;20052;-75
2023/07/05 03:08:09;;;;;;;11.77;8.18;;;;;;;-145.41;100.00;58600.66;5034075;28;20035;-75
2023/07/05 03:10:39;;;;;;;13.23;8.52;;;;;;;-145.41;100.00;58600.66;5040195;28;20041;-75
2023/07/05 03:13:04;;;;;;;11.02;7.68;;;;;;;-145.41;100.00;58600.66;5033794;28;20029;-75
2023/07/05 03:15:30;;;;;;;12.38;8.60;;;;;;;-145.41;100.00;58600.66;5038976;28;20040;-75
2023/07/05 03:17:55;;;;;;;15.13;11.85;;;;;;;-145.41;100.00;58600.66;5036635;28;20037;-75
2023/07/05 03:20:21;;;;;;;15.50;11.57;;;;;;;-145.41;100.00;58600.66;5033668;28;20036;-75
2023/07/05 03:22:46;;;;;;;19.15;11.35;;;;;;;-145.41;100.00;58600.66;5039874;28;20041;-75
2023/07/05 03:25:12;;;;;;;13.93;9.85;;;;;;;-145.41;100.00;58600.66;5046988;28;20029;-78
2023/07/05 03:27:37;;;;;;;17.75;10.52;;;;;;;-145.41;100.00;58600.66;5041923;28;20325;-76
2023/07/05 03:30:03;;;;;;;18.00;11.13;;;;;;;-145.41;100.00;58600.66;5034920;28;20048;-75
2023/07/05 03:32:29;;;;;;;14.30;11.15;;;;;;;-145.41;100.00;58600.66;5043623;28;20082;-75
2023/07/05 03:34:54;;;;;;;16.67;10.45;;;;;;;-145.41;100.00;58600.66;5035542;28;20778;-76
2023/07/05 03:37:20;;;;;;;15.90;10.02;;;;;;;-145.41;100.00;58600.66;5036468;28;20036;-76
2023/07/05 03:39:45;;;;;;;14.50;10.23;;;;;;;-145.41;100.00;58600.66;5040093;28;20036;-76
2023/07/05 03:42:10;;;;;;;12.65;9.23;;;;;;;-145.41;100.00;58600.66;5037405;28;20396;-76
2023/07/05 03:44:36;;;;;;;14.93;10.38;;;;;;;-145.41;100.00;58600.66;5043899;28;20047;-76
2023/07/05 03:47:01;;;;;;;15.40;10.13;;;;;;;-145.41;100.00;58600.66;5041134;28;20122;-75
2023/07/05 03:49:27;;;;;;;14.00;8.82;;;;;;;-145.41;100.00;58600.66;5036942;28;20072;-76
2023/07/05 03:51:52;;;;;;;11.80;7.90;;;;;;;-145.41;100.00;58600.66;5042398;28;20052;-76
2023/07/05 03:54:18;;;;;;;11.63;7.55;;;;;;;-145.41;100.00;58600.66;5041405;28;20083;-76
2023/07/05 03:56:43;;;;;;;11.73;8.32;;;;;;;-145.41;100.00;58600.66;5037260;28;20033;-75
2023/07/05 03:59:09;;;;;;;15.07;9.75;;;;;;;-145.41;100.00;58600.66;5041841;28;20044;-76
2023/07/05 04:01:34;;;;;;;13.88;8.77;;;;;;;-145.41;100.00;58600.66;5043718;28;20108;-76
2023/07/05 04:04:01;;;;;;;12.25;8.48;;;;;;;-145.41;100.00;58600.66;5038972;28;20041;-76
2023/07/05 04:06:29;;;;;;;14.23;9.10;;;;;;;-145.41;100.00;58600.66;5047127;28;20043;-76
2023/07/05 04:08:54;;;;;;;13.90;9.02;;;;;;;-145.41;100.00;58600.66;5038271;28;20029;-76
2023/07/05 04:11:20;;;;;;;13.30;8.48;;;;;;;-145.41;100.00;58600.66;5040415;28;20095;-76
2023/07/05 04:13:47;;;;;;;14.18;8.98;;;;;;;-145.41;100.00;58600.66;5049989;28;20037;-77
2023/07/05 04:16:15;;;;;;;12.52;8.75;;;;;;;-145.41;100.00;58600.66;5032972;28;20045;-76
2023/07/05 04:18:42;;;;;;;17.80;9.93;;;;;;;-145.41;100.00;58600.66;5036991;28;20045;-77
2023/07/05 04:21:09;;;;;;;14.18;9.63;;;;;;;-145.41;100.00;58600.66;5040731;28;20033;-76
2023/07/05 04:23:35;;;;;;;12.40;9.23;;;;;;;-145.41;100.00;58600.66;5034420;28;20041;-76
2023/07/05 04:26:03;;;;;;;19.30;12.80;;;;;;;-145.41;100.00;58600.66;5044075;28;20117;-76
2023/07/05 04:28:30;;;;;;;19.00;12.63;;;;;;;-145.41;100.00;58600.66;5042672;28;20407;-77
2023/07/05 04:30:56;;;;;;;17.60;11.55;;;;;;;-145.41;100.00;58600.66;5038291;28;20037;-77
2023/07/05 04:33:21;;;;;;;14.80;10.90;;;;;;;-145.41;100.00;58600.66;5044572;28;20039;-77
2023/07/05 04:35:49;;;;;;;16.77;11.50;;;;;;;-145.41;100.00;58600.66;5047722;28;20040;-76
2023/07/05 04:38:15;;;;;;;15.98;10.98;;;;;;;-145.41;100.00;58600.66;5041700;28;20435;-77
2023/07/05 04:40:41;;;;;;;16.15;9.98;;;;;;;-145.41;100.00;58600.66;5036316;28;20090;-76
2023/07/05 04:43:07;;;;;;;15.68;11.07;;;;;;;-145.41;100.00;58600.66;5038522;28;20029;-76
2023/07/05 04:45:32;;;;;;;16.50;12.15;;;;;;;-145.41;100.00;58600.66;5040524;28;20107;-76
2023/07/05 04:47:58;;;;;;;16.95;12.32;;;;;;;-145.41;100.00;58600.66;5044405;28;20045;-77
2023/07/05 04:50:23;;;;;;;19.42;11.65;;;;;;;-145.41;100.00;58600.66;5045073;28;20037;-76
2023/07/05 04:52:48;;;;;;;15.15;12.00;;;;;;;-145.41;100.00;58600.66;5036942;28;20048;-77
2023/07/05 04:55:14;;;;;;;14.93;10.88;;;;;;;-145.41;100.00;58600.66;5044255;28;20037;-76
2023/07/05 04:57:42;;;;;;;14.93;10.80;;;;;;;-145.41;100.00;58600.66;5039731;28;20037;-76
2023/07/05 05:00:08;;;;;;;15.32;11.48;;;;;;;-145.41;100.00;58600.66;5038337;28;20029;-76
2023/07/05 05:02:34;;;;;;;15.15;10.73;;;;;;;-145.41;100.00;58600.66;5046689;28;20059;-76
2023/07/05 05:04:59;;;;;;;15.63;10.98;;;;;;;-145.41;100.00;58600.66;5041653;28;20037;-76
2023/07/05 05:07:25;;;;;;;14.23;10.75;;;;;;;-145.41;100.00;58600.66;5038390;28;20116;-76
2023/07/05 05:09:50;;;;;;;16.20;10.82;;;;;;;-145.41;100.00;58600.66;5046596;28;20107;-76
2023/07/05 05:12:15;;;;;;;16.00;11.48;;;;;;;-145.41;100.00;58600.66;5041742;28;20049;-76
2023/07/05 05:14:41;;;;;;;17.13;11.60;;;;;;;-145.41;100.00;58600.66;5040819;28;20041;-76
2023/07/05 05:17:06;;;;;;;15.38;11.15;;;;;;;-145.41;100.00;58600.66;5047608;28;20048;-76
2023/07/05 05:19:32;;;;;;;18.95;11.43;;;;;;;-145.41;100.00;58600.66;5030934;28;20033;-76
2023/07/05 05:21:57;;;;;;;15.05;11.13;;;;;;;-145.41;100.00;58600.66;5039556;28;20073;-76
2023/07/05 05:24:22;;;;;;;16.75;12.45;;;;;;;-145.41;100.00;58600.66;5048319;28;20406;-76
2023/07/05 05:26:48;;;;;;;15.38;11.32;;;;;;;-145.41;100.00;58600.66;5036969;28;20033;-76
2023/07/05 05:29:13;;;;;;;14.98;11.27;;;;;;;-145.41;100.00;58600.66;5039481;28;20021;-76
2023/07/05 05:31:38;;;;;;;14.38;10.68;;;;;;;-145.41;100.00;58600.66;5048461;28;20041;-77
2023/07/05 05:34:04;;;;;;;18.45;11.77;;;;;;;-145.41;100.00;58600.66;5036116;28;20496;-76
2023/07/05 05:36:29;;;;;;;14.38;10.82;;;;;;;-145.41;100.00;58600.66;5040283;28;20036;-76
2023/07/05 05:38:55;;;;;;;16.25;12.23;;;;;;;-145.41;100.00;58600.66;5041794;28;20456;-76
2023/07/05 05:41:20;;;;;;;19.02;11.18;;;;;;;-145.41;100.00;58600.66;5041049;28;20033;-76
2023/07/05 05:43:46;;;;;;;14.65;10.55;;;;;;;-145.41;100.00;58600.66;5045856;28;20040;-77
2023/07/05 05:46:11;;;;;;;13.23;9.98;;;;;;;-145.41;100.00;58600.66;5038401;28;20029;-76
2023/07/05 05:48:37;;;;;;;17.27;11.52;;;;;;;-145.41;100.00;58600.66;5041624;28;20051;-76
2023/07/05 05:51:02;;;;;;;13.85;10.20;;;;;;;-145.41;100.00;58600.66;5048629;28;20033;-76
2023/07/05 05:53:28;;;;;;;16.40;11.50;;;;;;;-145.41;100.00;58600.66;5034878;28;20029;-77
2023/07/05 05:55:57;;;;;;;16.25;12.35;;;;;;;-145.41;100.00;58600.66;5038405;28;20536;-76
2023/07/05 05:58:23;;;;;;;15.70;11.63;;;;;;;-145.41;100.00;58600.66;5042444;28;20174;-77
2023/07/05 06:00:49;;;;;;;15.05;11.45;;;;;;;-145.41;100.00;58600.66;5036490;28;20033;-76
2023/07/05 06:03:14;;;;;;;15.60;11.27;;;;;;;-145.41;100.00;58600.66;5040857;28;20035;-76
2023/07/05 06:05:41;;;;;;;17.10;11.70;;;;;;;-145.41;100.00;58600.66;5040236;28;20037;-77
2023/07/05 06:08:06;;;;;;;15.30;11.90;;;;;;;-145.41;100.00;58600.66;5032919;28;20045;-77
2023/07/05 06:10:32;;;;;;;16.30;11.98;;;;;;;-145.41;100.00;58600.66;5039028;28;20033;-76
2023/07/05 06:12:57;;;;;;;14.70;12.70;;;;;;;-145.41;100.00;58600.66;5033160;28;20156;-77
2023/07/05 06:15:22;;;;;;;18.05;14.85;;;;;;;-145.41;100.00;58600.66;5035846;28;20376;-76
2023/07/05 06:17:48;;;;;;;16.42;13.82;;;;;;;-145.41;100.00;58600.66;5034913;28;20399;-77
2023/07/05 06:20:16;;;;;;;19.00;13.98;;;;;;;-145.41;100.00;58600.66;5040776;28;20036;-77
2023/07/05 06:22:42;;;;;;;17.52;12.32;;;;;;;-145.41;100.00;58600.66;5045494;28;20072;-77
2023/07/05 06:25:10;;;;;;;19.02;14.23;;;;;;;-145.41;100.00;58600.66;5035591;28;20522;-77
2023/07/05 06:27:35;;;;;;;15.82;11.88;;;;;;;-145.41;100.00;58600.66;5042877;28;20041;-77
2023/07/05 06:30:01;;;;;;;15.00;12.13;;;;;;;-145.41;100.00;58600.66;5041244;28;20036;-77
2023/07/05 06:32:27;;;;;;;15.93;12.75;;;;;;;-145.41;100.00;58600.66;5034938;28;20038;-76
2023/07/05 06:34:52;;;;;;;18.05;11.90;;;;;;;-145.41;100.00;58600.66;5039269;28;20041;-77
2023/07/05 06:37:17;;;;;;;17.33;13.18;;;;;;;-145.41;100.00;58600.66;5039675;28;20044;-77
2023/07/05 06:39:42;;;;;;;16.55;12.35;;;;;;;-145.41;100.00;58600.66;5037573;28;20029;-77
2023/07/05 06:42:08;;;;;;;17.08;10.05;;;;;;;-145.41;100.00;58600.66;5043442;28;20040;-77
2023/07/05 06:44:34;;;;;;;16.50;10.88;;;;;;;-145.41;100.00;58600.66;5037278;28;20060;-77
2023/07/05 06:47:00;;;;;;;14.48;10.45;;;;;;;-145.41;100.00;58600.66;5038867;28;21253;-77
2023/07/05 06:49:25;;;;;;;14.90;11.23;;;;;;;-145.41;100.00;58600.66;5039390;28;20369;-76
2023/07/05 06:51:52;;;;;;;12.65;9.48;;;;;;;-145.41;100.00;58600.66;5036427;28;20047;-77
2023/07/05 06:54:19;;;;;;;17.60;9.95;;;;;;;-145.41;100.00;58600.66;5040303;28;20029;-77
2023/07/05 06:56:44;;;;;;;11.23;9.00;;;;;;;-145.41;100.00;58600.66;5033123;28;20037;-77
2023/07/05 06:59:10;;;;;;;14.65;10.18;;;;;;;-145.41;100.00;58600.66;5031965;28;20065;-77
2023/07/05 07:01:35;;;;;;;14.00;8.10;;;;;;;-145.41;100.00;58600.66;5044979;28;20533;-77
2023/07/05 07:04:05;;;;;;;11.43;8.35;;;;;;;-145.41;100.00;58600.66;5033575;28;20495;-77
2023/07/05 07:06:31;;;;;;;10.32;7.57;;;;;;;-145.41;100.00;58600.66;5035858;28;20096;-77
2023/07/05 07:08:56;;;;;;;10.23;7.65;;;;;;;-145.41;100.00;58600.66;5035238;28;20093;-77
2023/07/05 07:11:21;;;;;;;13.48;8.02;;;;;;;-145.41;100.00;58600.66;5035743;28;20538;-77
2023/07/05 07:13:47;;;;;;;10.38;7.93;;;;;;;-145.41;100.00;58600.66;5041603;28;20041;-77
2023/07/05 07:16:14;;;;;;;11.65;8.52;;;;;;;-145.41;100.00;58600.66;5044367;28;20040;-77
2023/07/05 07:18:44;;;;;;;13.18;8.48;;;;;;;-145.41;100.00;58600.66;5037769;28;20055;-77
2023/07/05 07:21:10;;;;;;;12.30;8.60;;;;;;;-145.41;100.00;58600.66;5029173;28;20067;-77
2023/07/05 07:23:36;;;;;;;11.63;8.50;;;;;;;-145.41;100.00;58600.66;5024970;28;20486;-77
2023/07/05 07:26:09;;;;;;;13.02;8.68;;;;;;;-145.41;100.00;58600.66;5026729;28;20080;-77
2023/07/05 07:28:35;;;;;;;10.50;7.85;;;;;;;-145.41;100.00;58600.66;5038202;28;20589;-77
2023/07/05 07:31:19;;;;;;;10.90;7.32;;;;;;;-145.41;100.00;58600.66;5037691;28;20065;-77
2023/07/05 07:33:46;;;;;;;12.38;8.32;;;;;;;-145.41;100.00;58600.66;5036894;28;20057;-77
2023/07/05 07:36:13;;;;;;;10.60;7.53;;;;;;;-145.41;100.00;58600.66;5052944;28;20078;-77
2023/07/05 07:38:40;;;;;;;9.85;7.15;;;;;;;-145.41;100.00;58600.66;5038938;28;20040;-77
2023/07/05 07:41:18;;;;;;;11.68;8.60;;;;;;;-145.41;100.00;58600.66;5046520;28;20033;-77
2023/07/05 07:43:44;;;;;;;15.50;10.40;;;;;;;-145.41;100.00;58600.66;5049529;28;20052;-77
2023/07/05 07:46:12;;;;;;;12.32;8.77;;;;;;;-145.41;100.00;58600.66;5035089;28;20037;-77
2023/07/05 07:48:40;;;;;;;9.55;6.85;;;;;;;-145.41;100.00;58600.66;5042967;28;20024;-77
2023/07/05 07:51:06;;;;;;;9.95;6.03;;;;;;;-145.41;100.00;58600.66;5044713;28;20033;-77
2023/07/05 07:53:31;;;;;;;8.45;5.53;;;;;;;-145.41;100.00;58600.66;5038496;28;20060;-78
2023/07/05 07:55:58;;;;;;;11.77;7.07;;;;;;;-145.41;100.00;58600.66;5046900;28;20044;-77
2023/07/05 07:58:23;;;;;;;8.82;5.70;;;;;;;-145.41;100.00;58600.66;5044131;28;20025;-77
2023/07/05 08:00:49;;;;;;;7.05;4.63;;;;;;;-145.41;100.00;58600.66;5055652;28;20501;-78
2023/07/05 08:03:14;;;;;;;6.90;4.15;;;;;;;-145.41;100.00;58600.66;5041223;28;20029;-78
2023/07/05 08:05:39;;;;;;;7.43;4.80;;;;;;;-145.41;100.00;58600.66;5047114;28;20043;-78
2023/07/05 08:08:05;;;;;;;8.18;4.20;;;;;;;-145.41;100.00;58600.66;5045525;28;20480;-77
2023/07/05 08:10:30;;;;;;;6.30;4.20;;;;;;;-145.41;100.00;58600.66;5041877;28;20098;-77
2023/07/05 08:13:05;;;;;;;7.53;4.55;;;;;;;-145.41;100.00;58600.66;5031314;28;20029;-78
2023/07/05 08:15:31;;;;;;;6.78;4.05;;;;;;;-145.41;100.00;58600.66;5047641;28;20124;-78
2023/07/05 08:17:56;;;;;;;7.05;4.05;;;;;;;-145.41;100.00;58600.66;5044131;28;20399;-77
2023/07/05 08:20:22;;;;;;;8.55;3.80;;;;;;;-145.41;100.00;58600.66;5049785;28;20029;-77
2023/07/05 08:22:47;;;;;;;6.72;3.85;;;;;;;-145.41;100.00;58600.66;5049412;28;20108;-78
2023/07/05 08:25:13;;;;;;;7.50;3.65;;;;;;;-145.41;100.00;58600.66;5046869;28;20033;-78
2023/07/05 08:27:38;;;;;;;5.70;3.72;;;;;;;-145.41;100.00;58600.66;5045296;28;20033;-77
2023/07/05 08:30:04;;;;;;;8.43;3.55;;;;;;;-145.41;100.00;58600.66;5041492;28;20429;-78
2023/07/05 08:32:29;;;;;;;6.78;3.65;;;;;;;-145.41;100.00;58600.66;5043410;28;20426;-78
2023/07/05 08:34:55;;;;;;;5.93;4.00;;;;;;;-145.41;100.00;58600.66;5042055;28;20040;-77
2023/07/05 08:37:20;;;;;;;7.25;4.25;;;;;;;-145.41;100.00;58600.66;5049362;28;20086;-77
2023/07/05 08:39:45;;;;;;;8.07;4.63;;;;;;;-145.41;100.00;58600.66;5049334;28;20037;-78
2023/07/05 08:42:32;;;;;;;4.70;3.00;;;;;;;-145.41;100.00;58600.66;5043166;28;20033;-78
2023/07/05 08:45:12;;;;;;;4.85;2.53;;;;;;;-145.41;100.00;58600.66;5045944;28;20066;-78
2023/07/05 08:47:48;;;;;;;4.75;2.70;;;;;;;-145.41;100.00;58600.66;5031411;28;20029;-78
2023/07/05 08:50:21;;;;;;;5.38;3.10;;;;;;;-145.41;100.00;58600.66;5040320;28;20034;-78
2023/07/05 08:52:47;;;;;;;9.75;3.50;;;;;;;-145.41;100.00;58600.66;5045084;28;20052;-78
2023/07/05 08:55:18;;;;;;;6.28;2.65;;;;;;;-145.41;100.00;58600.66;5044355;28;20128;-78
2023/07/05 08:57:52;;;;;;;5.88;3.10;;;;;;;-145.41;100.00;58600.66;5046585;28;20043;-78
2023/07/05 09:00:28;;;;;;;8.63;3.17;;;;;;;-145.41;100.00;58600.66;5052022;28;20029;-78
2023/07/05 09:02:53;;;;;;;6.40;3.72;;;;;;;-145.41;100.00;58600.66;5043607;28;20040;-78
2023/07/05 09:05:30;;;;;;;5.43;2.30;;;;;;;-145.41;100.00;58600.66;5049175;28;20526;-78
2023/07/05 09:08:10;;;;;;;5.22;2.40;;;;;;;-145.41;100.00;58600.66;5024912;28;20076;-78
2023/07/05 09:10:53;;;;;;;3.90;2.05;;;;;;;-145.41;100.00;58600.66;5043673;28;20045;-78
2023/07/05 09:13:37;;;;;;;3.85;1.95;;;;;;;-145.41;100.00;58600.66;5051310;28;20021;-78
2023/07/05 09:16:12;;;;;;;4.78;1.77;;;;;;;-145.41;100.00;58600.66;5043427;28;20103;-78
2023/07/05 09:19:05;;;;;;;5.18;1.92;;;;;;;-145.41;100.00;58600.66;5046301;28;20423;-78
2023/07/05 09:21:55;;;;;;;3.05;1.65;;;;;;;-145.41;100.00;58600.66;5040494;28;20088;-78
2023/07/05 09:24:27;;;;;;;3.40;1.63;;;;;;;-145.41;100.00;58600.66;5044399;28;20029;-78
2023/07/05 09:26:56;;;;;;;5.30;1.70;;;;;;;-145.41;100.00;58600.66;5053263;28;20028;-78
2023/07/05 09:29:46;;;;;;;6.07;1.92;;;;;;;-145.41;100.00;58600.66;5042003;28;20083;-78
2023/07/05 09:32:16;;;;;;;7.15;2.45;;;;;;;-145.41;100.00;58600.66;5047010;28;20048;-78
2023/07/05 09:34:47;;;;;;;4.45;2.22;;;;;;;-145.41;100.00;58600.66;5051432;28;20037;-78
2023/07/05 09:37:15;;;;;;;;;;;;;;;-145.41;100.00;58600.66;5042460;28;20056;-78
2023/07/05 09:39:49;;;;;;;6.57;1.60;;;;;;;-145.41;100.00;58600.66;5041949;28;19917;-78
2023/07/05 09:42:28;;;;;;;4.03;1.58;;;;;;;-145.41;100.00;58600.66;5041937;28;20029;-78
2023/07/05 09:44:54;;;;;;;7.43;1.90;;;;;;;-145.41;100.00;58600.66;5049175;28;20089;-78
2023/07/05 09:47:23;;;;;;;2.80;1.40;;;;;;;-145.41;100.00;58600.66;5038839;28;20045;-78
2023/07/05 09:49:49;;;;;;;6.03;2.58;;;;;;;-145.41;100.00;58600.66;5044442;28;20487;-78
2023/07/05 09:52:17;;;;;;;3.08;1.50;;;;;;;-145.41;100.00;58600.66;5050860;28;20090;-78
2023/07/05 09:54:45;;;;;;;5.55;1.60;;;;;;;-145.41;100.00;58600.66;5038091;28;20029;-78
2023/07/05 09:57:12;;;;;;;3.10;1.63;;;;;;;-145.41;100.00;58600.66;5044560;28;20064;-78
2023/07/05 09:59:37;;;;;;;7.47;2.53;;;;;;;-145.41;100.00;58600.66;5042606;28;20034;-78
2023/07/05 10:02:12;;;;;;;2.50;1.38;;;;;;;-145.41;100.00;58600.66;5038954;28;20037;-78
2023/07/05 10:04:45;;;;;;;4.75;2.00;;;;;;;-145.41;100.00;58600.66;5047370;28;20034;-78
2023/07/05 10:07:16;;;;;;;3.90;1.77;;;;;;;-145.41;100.00;58600.66;5023671;28;20507;-79
2023/07/05 10:10:03;;;;;;;4.37;1.60;;;;;;;-145.41;100.00;58600.66;5040025;28;20040;-78
2023/07/05 10:12:42;;;;;;;3.22;1.50;;;;;;;-145.41;100.00;58600.66;5031361;28;20071;-79
2023/07/05 10:15:20;;;;;;;3.55;1.90;;;;;;;-145.41;100.00;58600.66;5050142;28;20035;-78
2023/07/05 10:17:46;;;;;;;6.18;2.75;;;;;;;-145.41;100.00;58600.66;5052204;28;20040;-79
2023/07/05 10:20:42;;;;;;;5.60;2.30;;;;;;;-145.41;100.00;58600.66;5057923;28;20047;-79
2023/07/05 10:23:16;;;;;;;3.00;1.70;;;;;;;-145.41;100.00;58600.66;5046230;28;20576;-78
2023/07/05 10:25:42;;;;;;;5.18;2.13;;;;;;;-145.41;100.00;58600.66;5041811;28;20617;-78
2023/07/05 10:28:14;;;;;;;4.53;1.83;;;;;;;-145.41;100.00;58600.66;5058657;28;20081;-79
2023/07/05 10:30:55;;;;;;;4.13;1.75;;;;;;;-145.41;100.00;58600.66;5036296;28;20037;-77
2023/07/05 10:33:32;;;;;;;5.75;2.05;;;;;;;-145.41;100.00;58600.66;5050250;28;20044;-78
2023/07/05 10:36:03;;;;;;;5.45;2.20;;;;;;;-145.41;100.00;58600.66;5042009;28;20037;-77
2023/07/05 10:38:44;;;;;;;4.05;1.55;;;;;;;-145.41;100.00;58600.66;5043634;28;20028;-77
2023/07/05 10:41:26;;;;;;;3.30;1.60;;;;;;;-145.41;100.00;58600.66;5050710;28;20051;-77
2023/07/05 10:43:51;;;;;;;7.90;1.80;;;;;;;-145.41;100.00;58600.66;5046125;28;20075;-77
2023/07/05 10:46:25;;;;;;;4.13;1.20;;;;;;;-145.41;100.00;58600.66;5047327;28;20025;-77
2023/07/05 10:49:11;;;;;;;;;;;;;;;;;;;;;
2023/07/05 10:51:56;;;;;;;3.63;1.80;;;;;;;-145.41;100.00;58600.66;5049630;28;20040;-78
2023/07/05 10:54:36;;;;;;;3.83;1.90;;;;;;;-145.41;100.00;58600.66;5056171;28;20064;-79
2023/07/05 10:57:12;;;;;;;2.70;1.40;;;;;;;-145.41;100.00;58600.66;5045698;28;20029;-79
2023/07/05 10:59:45;;;;;;;3.58;1.90;;;;;;;-145.41;100.00;58600.66;5068414;28;20048;-79
2023/07/05 11:02:16;;;;;;;3.50;1.67;;;;;;;-145.41;100.00;58600.66;5045651;28;20049;-77
2023/07/05 11:04:44;;;;;;;4.75;1.70;;;;;;;-145.41;100.00;58600.66;5043825;28;20095;-77
2023/07/05 11:07:10;;;;;;;4.45;1.50;;;;;;;-145.41;100.00;58600.66;5031926;28;20044;-77
2023/07/05 11:09:40;;;;;;;3.05;1.73;;;;;;;-145.41;100.00;58600.66;5040174;28;20569;-77
2023/07/05 11:12:28;;;;;;;5.07;1.42;;;;;;;-145.41;100.00;58600.66;5033377;28;20418;-77